CYBU

Nipawin Airport

Nipawin, Saskatchewan, Canada

CYBU 260100Z AUTO 14007KT 9SM FEW080 12/03 A3003 RMK SLP185

Observed Flight Rules
Sep-26 @ 01:00 UTC (an hour ago)
 
Visual Flight Rules
Wind Visibility Clouds
140° at 7 knots 9 miles
  • Few at 8,000' AGL
Temperatures Readings
Current 12°C / 54°F
Dewpoint 3°C / 37°F
Humidity 54%
Altimeter 30.03" Hg
Pressure 1018.5 hPa
Elevation 374
Observed Flight Rules
Sep-26 @ 01:00 UTC
(an hour ago)
 
VFR
Wind Visibility
140° at 7 knots 9 miles
Clouds
  • Few at 8,000' AGL
Temperature Dewpoint
12°C / 54°F 3°C / 37°F
Humidity Altimeter Pressure
54% 30.03" Hg 1018.5 hPa